createdAt,value
2018-09-18T00:00:23.925Z,1.57
2018-09-18T00:02:53.310Z,1.30
2018-09-18T00:05:22.710Z,1.87
2018-09-18T00:07:51.821Z,1.70
2018-09-18T00:10:21.341Z,2.03
2018-09-18T00:12:50.601Z,1.77
2018-09-18T00:15:19.486Z,1.80
2018-09-18T00:17:48.641Z,2.00
2018-09-18T00:20:17.616Z,1.67
2018-09-18T00:22:47.011Z,1.70
2018-09-18T00:25:16.296Z,2.10
2018-09-18T00:27:45.405Z,1.67
2018-09-18T00:30:14.549Z,1.50
2018-09-18T00:32:44.053Z,1.77
2018-09-18T00:35:13.139Z,1.77
2018-09-18T00:37:42.083Z,1.73
2018-09-18T00:40:11.057Z,1.93
2018-09-18T00:42:39.978Z,1.70
2018-09-18T00:45:09.113Z,2.07
2018-09-18T00:47:38.455Z,2.03
2018-09-18T00:50:07.966Z,1.83
2018-09-18T00:52:36.861Z,1.97
2018-09-18T00:55:05.990Z,1.50
2018-09-18T00:57:35.293Z,1.53
2018-09-18T01:00:04.707Z,1.33
2018-09-18T01:02:33.853Z,1.67
2018-09-18T01:05:02.851Z,1.67
2018-09-18T01:07:31.975Z,1.80
2018-09-18T01:10:02.022Z,1.80
2018-09-18T01:12:31.120Z,1.60
2018-09-18T01:15:00.125Z,2.00
2018-09-18T01:17:29.117Z,1.60
2018-09-18T01:19:58.369Z,2.27
2018-09-18T01:22:27.361Z,1.80
2018-09-18T01:24:56.697Z,1.50
2018-09-18T01:27:25.529Z,1.63
2018-09-18T01:29:54.642Z,1.57
2018-09-18T01:32:23.909Z,1.87
2018-09-18T01:34:52.950Z,1.93
2018-09-18T01:37:21.828Z,1.53
2018-09-18T01:39:51.304Z,1.50
2018-09-18T01:42:21.668Z,1.70
2018-09-18T01:44:51.265Z,1.77
2018-09-18T01:47:20.417Z,1.70
2018-09-18T01:49:49.300Z,1.80
2018-09-18T01:52:18.578Z,1.97
2018-09-18T01:54:48.030Z,1.87
2018-09-18T01:57:17.344Z,1.70
2018-09-18T01:59:46.597Z,2.40
2018-09-18T02:02:15.889Z,1.80
2018-09-18T02:04:45.089Z,1.80
2018-09-18T02:07:14.159Z,1.50
2018-09-18T02:09:43.243Z,2.07
2018-09-18T02:12:12.449Z,1.70
2018-09-18T02:14:42.257Z,2.13
2018-09-18T02:17:11.317Z,1.50
2018-09-18T02:19:40.421Z,1.83
2018-09-18T02:22:09.652Z,1.73
2018-09-18T02:24:38.606Z,1.70
2018-09-18T02:27:07.953Z,1.70
2018-09-18T02:29:37.269Z,1.80
2018-09-18T02:32:06.437Z,1.70
2018-09-18T02:34:35.432Z,2.33
2018-09-18T02:37:04.574Z,1.87
2018-09-18T02:39:35.017Z,2.00
2018-09-18T02:42:03.991Z,1.83
2018-09-18T02:44:33.101Z,1.77
2018-09-18T02:47:02.001Z,1.50
2018-09-18T02:49:30.953Z,1.80
2018-09-18T02:51:59.944Z,1.90
2018-09-18T02:54:29.106Z,1.70
2018-09-18T02:56:58.289Z,1.60
2018-09-18T02:59:27.979Z,1.80
2018-09-18T03:01:57.038Z,1.80
2018-09-18T03:04:26.237Z,1.73
2018-09-18T03:06:55.241Z,1.80
2018-09-18T03:09:24.278Z,2.10
2018-09-18T03:11:53.357Z,2.20
2018-09-18T03:14:23.425Z,2.00
2018-09-18T03:16:52.772Z,1.60
2018-09-18T03:19:21.761Z,1.77
2018-09-18T03:21:51.033Z,2.07
2018-09-18T03:24:20.026Z,1.73
2018-09-18T03:26:49.049Z,1.70
2018-09-18T03:29:18.030Z,2.00
2018-09-18T03:31:46.957Z,2.20
2018-09-18T03:34:15.884Z,2.30
2018-09-18T03:36:45.047Z,2.20
2018-09-18T03:39:13.950Z,2.00
2018-09-18T03:41:42.872Z,1.70
2018-09-18T03:44:12.285Z,2.03
2018-09-18T03:46:41.391Z,2.20
2018-09-18T03:49:10.532Z,1.80
2018-09-18T03:51:39.497Z,2.53
2018-09-18T03:54:08.622Z,2.40
2018-09-18T03:56:38.193Z,2.07
2018-09-18T03:59:07.439Z,1.80
2018-09-18T04:01:36.742Z,2.07
2018-09-18T04:04:05.709Z,2.40
2018-09-18T04:06:34.714Z,2.53
2018-09-18T04:09:04.786Z,1.97
2018-09-18T04:11:34.236Z,2.00
2018-09-18T04:14:03.437Z,1.97
2018-09-18T04:16:32.657Z,2.13
2018-09-18T04:19:01.782Z,2.00
2018-09-18T04:21:36.490Z,1.77
2018-09-18T04:24:06.053Z,2.00
2018-09-18T04:26:35.362Z,2.40
2018-09-18T04:29:04.501Z,2.07
2018-09-18T04:31:33.632Z,2.30
2018-09-18T04:34:02.517Z,2.10
2018-09-18T04:36:31.950Z,1.63
2018-09-18T04:39:01.040Z,1.77
2018-09-18T04:41:30.893Z,1.90
2018-09-18T04:43:59.761Z,2.23
2018-09-18T04:46:28.811Z,2.10
2018-09-18T04:48:57.998Z,2.37
2018-09-18T04:51:27.357Z,2.33
2018-09-18T04:53:56.312Z,2.73
2018-09-18T04:56:25.441Z,2.50
2018-09-18T04:58:54.932Z,1.97
2018-09-18T05:01:24.025Z,2.23
2018-09-18T05:03:53.041Z,2.30
2018-09-18T05:06:22.069Z,2.37
2018-09-18T05:08:51.185Z,2.40
2018-09-18T05:11:20.470Z,2.53
2018-09-18T05:13:49.921Z,2.30
2018-09-18T05:16:19.090Z,2.67
2018-09-18T05:18:48.270Z,2.10
2018-09-18T05:21:17.447Z,2.10
2018-09-18T05:23:47.217Z,2.23
2018-09-18T05:26:16.701Z,2.40
2018-09-18T05:28:46.602Z,2.03
2018-09-18T05:31:16.364Z,2.50
2018-09-18T05:33:45.659Z,1.93
2018-09-18T05:36:15.071Z,1.63
2018-09-18T05:38:44.442Z,2.20
2018-09-18T05:41:13.533Z,2.30
2018-09-18T05:43:42.764Z,2.10
2018-09-18T05:46:11.710Z,2.37
2018-09-18T05:48:40.725Z,2.10
2018-09-18T05:51:09.646Z,2.57
2018-09-18T05:53:38.758Z,2.30
2018-09-18T05:56:07.838Z,2.10
2018-09-18T05:58:37.003Z,2.47
2018-09-18T06:01:06.227Z,2.10
2018-09-18T06:03:35.402Z,2.40
2018-09-18T06:06:04.577Z,2.60
2018-09-18T06:08:33.640Z,2.13
2018-09-18T06:11:02.513Z,2.40
2018-09-18T06:13:31.934Z,2.47
2018-09-18T06:16:00.901Z,2.07
2018-09-18T06:18:29.781Z,2.07
2018-09-18T06:20:58.833Z,2.20
2018-09-18T06:23:27.874Z,2.37
2018-09-18T06:25:57.483Z,2.17
2018-09-18T06:28:26.501Z,2.17
2018-09-18T06:30:55.422Z,2.60
2018-09-18T06:33:26.048Z,2.13
2018-09-18T06:35:55.727Z,2.53
2018-09-18T06:38:25.209Z,2.67
2018-09-18T06:40:54.221Z,2.53
2018-09-18T06:43:23.125Z,2.60
2018-09-18T06:45:52.318Z,2.23
2018-09-18T06:48:21.802Z,2.40
2018-09-18T06:50:50.846Z,2.33
2018-09-18T06:53:19.712Z,2.50
2018-09-18T06:55:48.978Z,2.50
2018-09-18T06:58:18.150Z,2.27
2018-09-18T07:00:46.969Z,2.37
2018-09-18T07:03:16.065Z,2.73
2018-09-18T07:05:45.553Z,2.63
2018-09-18T07:08:14.624Z,2.13
2018-09-18T07:10:43.609Z,2.20
2018-09-18T07:13:12.902Z,2.00
2018-09-18T07:15:41.921Z,2.10
2018-09-18T07:18:11.069Z,2.17
2018-09-18T07:20:39.882Z,2.07
2018-09-18T07:23:08.925Z,2.20
2018-09-18T07:25:38.140Z,2.07
2018-09-18T07:28:07.689Z,2.57
2018-09-18T07:30:36.774Z,2.03
2018-09-18T07:33:06.823Z,2.10
2018-09-18T07:35:35.693Z,2.30
2018-09-18T07:38:04.834Z,2.20
2018-09-18T07:40:34.258Z,2.50
2018-09-18T07:43:03.518Z,2.60
2018-09-18T07:45:32.687Z,2.20
2018-09-18T07:48:02.025Z,2.27
2018-09-18T07:50:31.361Z,2.50
2018-09-18T07:53:00.482Z,2.10
2018-09-18T07:55:29.747Z,2.00
2018-09-18T07:57:58.821Z,2.43
2018-09-18T08:00:27.857Z,2.63
2018-09-18T08:02:57.033Z,2.17
2018-09-18T08:05:26.213Z,2.20
2018-09-18T08:07:55.258Z,2.20
2018-09-18T08:10:24.593Z,2.47
2018-09-18T08:12:53.861Z,2.47
2018-09-18T08:15:23.020Z,2.33
2018-09-18T08:17:51.934Z,2.20
2018-09-18T08:20:20.958Z,2.80
2018-09-18T08:22:49.911Z,2.97
2018-09-18T08:25:19.306Z,2.43
2018-09-18T08:27:48.514Z,2.80
2018-09-18T08:30:17.917Z,2.33
2018-09-18T08:32:47.146Z,2.50
2018-09-18T08:35:16.186Z,3.13
2018-09-18T08:37:45.279Z,2.90
2018-09-18T08:40:14.481Z,3.20
2018-09-18T08:42:43.430Z,3.40
2018-09-18T08:45:12.714Z,2.53
2018-09-18T08:47:41.843Z,3.20
2018-09-18T08:50:10.877Z,3.37
2018-09-18T08:52:40.171Z,3.10
2018-09-18T08:55:09.105Z,3.30
2018-09-18T08:57:38.659Z,3.63
2018-09-18T09:00:07.831Z,3.37
2018-09-18T09:02:37.015Z,4.03
2018-09-18T09:05:07.269Z,3.23
2018-09-18T09:07:36.513Z,3.43
2018-09-18T09:10:05.933Z,3.57
2018-09-18T09:12:35.166Z,3.67
2018-09-18T09:15:04.251Z,3.00
2018-09-18T09:17:33.130Z,3.00
2018-09-18T09:20:02.193Z,3.33
2018-09-18T09:22:31.964Z,3.60
2018-09-18T09:25:06.073Z,4.53
2018-09-18T09:27:35.563Z,3.30
2018-09-18T09:30:04.634Z,3.53
2018-09-18T09:32:33.896Z,3.47
2018-09-18T09:35:03.248Z,3.30
2018-09-18T09:37:32.482Z,3.10
2018-09-18T09:40:01.836Z,3.63
2018-09-18T09:42:31.034Z,3.63
2018-09-18T09:44:59.998Z,4.07
2018-09-18T09:47:29.064Z,3.87
2018-09-18T09:49:58.017Z,3.40
2018-09-18T09:52:27.005Z,3.70
2018-09-18T09:54:56.076Z,3.37
2018-09-18T09:57:25.557Z,3.93
2018-09-18T09:59:54.645Z,3.33
2018-09-18T10:02:28.659Z,3.70
2018-09-18T10:04:58.887Z,3.73
2018-09-18T10:07:28.055Z,3.53
2018-09-18T10:09:57.283Z,3.23
2018-09-18T10:12:26.665Z,3.67
2018-09-18T10:14:55.664Z,3.60
2018-09-18T10:17:24.712Z,3.83
2018-09-18T10:19:54.123Z,3.43
2018-09-18T10:22:23.170Z,3.27
2018-09-18T10:24:52.638Z,3.33
2018-09-18T10:27:21.894Z,4.03
2018-09-18T10:29:51.151Z,3.30
2018-09-18T10:32:20.366Z,3.67
2018-09-18T10:34:49.646Z,3.23
2018-09-18T10:37:18.661Z,3.90
2018-09-18T10:39:47.746Z,3.37
2018-09-18T10:42:16.915Z,3.37
2018-09-18T10:44:45.937Z,3.70
2018-09-18T10:47:15.090Z,3.50
2018-09-18T10:49:44.623Z,3.97
2018-09-18T10:52:13.650Z,3.60
2018-09-18T10:54:43.177Z,4.23
2018-09-18T10:57:12.114Z,3.47
2018-09-18T10:59:41.517Z,3.70
2018-09-18T11:02:10.646Z,3.80
2018-09-18T11:04:39.737Z,4.03
2018-09-18T11:07:08.862Z,3.80
2018-09-18T11:09:37.805Z,3.63
2018-09-18T11:12:07.010Z,3.27
2018-09-18T11:14:36.086Z,3.97
2018-09-18T11:17:05.137Z,3.50
2018-09-18T11:19:34.476Z,3.63
2018-09-18T11:22:03.739Z,3.23
2018-09-18T11:24:33.093Z,3.83
2018-09-18T11:27:02.301Z,3.90
2018-09-18T11:29:31.315Z,3.83
2018-09-18T11:32:00.325Z,3.67
2018-09-18T11:34:29.525Z,3.70
2018-09-18T11:36:58.471Z,3.70
2018-09-18T11:39:27.624Z,4.13
2018-09-18T11:41:56.626Z,3.90
2018-09-18T11:44:25.644Z,3.83
2018-09-18T11:46:54.833Z,3.50
2018-09-18T11:49:23.896Z,3.67
2018-09-18T11:51:53.151Z,3.73
2018-09-18T11:54:22.448Z,3.93
2018-09-18T11:56:51.513Z,3.67
2018-09-18T11:59:20.365Z,3.73
2018-09-18T12:01:49.545Z,3.67
2018-09-18T12:04:18.783Z,4.30
2018-09-18T12:06:47.625Z,4.00
2018-09-18T12:09:16.749Z,3.93
2018-09-18T12:11:45.699Z,3.80
2018-09-18T12:14:14.729Z,3.90
2018-09-18T12:16:43.775Z,3.60
2018-09-18T12:19:12.954Z,3.43
2018-09-18T12:21:42.313Z,3.60
2018-09-18T12:24:11.391Z,3.73
2018-09-18T12:26:40.790Z,3.60
2018-09-18T12:29:09.843Z,4.00
2018-09-18T12:31:38.874Z,3.80
2018-09-18T12:34:08.207Z,3.97
2018-09-18T12:36:37.226Z,3.47
2018-09-18T12:39:08.754Z,3.50
2018-09-18T12:41:38.377Z,3.47
2018-09-18T12:44:07.828Z,3.80
2018-09-18T12:46:36.914Z,3.60
2018-09-18T12:49:06.119Z,3.60
2018-09-18T12:51:35.191Z,3.53
2018-09-18T12:54:04.166Z,3.50
2018-09-18T12:56:33.133Z,3.20
2018-09-18T12:59:02.290Z,3.30
2018-09-18T13:01:32.409Z,3.23
2018-09-18T13:04:01.661Z,3.80
2018-09-18T13:06:30.792Z,3.40
2018-09-18T13:09:00.205Z,3.57
2018-09-18T13:11:29.187Z,3.17
2018-09-18T13:13:58.430Z,3.43
2018-09-18T13:16:27.579Z,3.60
2018-09-18T13:18:57.170Z,3.80
2018-09-18T13:21:26.136Z,3.50
2018-09-18T13:23:55.266Z,3.60
2018-09-18T13:26:24.397Z,3.40
2018-09-18T13:28:53.493Z,3.53
2018-09-18T13:31:22.409Z,7.80
2018-09-18T13:33:51.480Z,12.50
2018-09-18T13:36:20.445Z,16.87
2018-09-18T13:38:49.509Z,8.57
2018-09-18T13:41:18.781Z,8.90
2018-09-18T13:43:47.907Z,6.17
2018-09-18T13:46:17.055Z,5.83
2018-09-18T13:48:46.500Z,4.57
2018-09-18T13:51:15.500Z,4.40
2018-09-18T13:53:44.707Z,4.30
2018-09-18T13:56:13.993Z,4.13
2018-09-18T13:58:43.511Z,4.00
2018-09-18T14:01:12.708Z,3.83
2018-09-18T14:03:42.753Z,3.80
2018-09-18T14:06:12.044Z,4.10
2018-09-18T14:08:40.981Z,3.83
2018-09-18T14:11:10.208Z,4.03
2018-09-18T14:13:39.217Z,4.07
2018-09-18T14:16:08.846Z,4.10
2018-09-18T14:18:37.846Z,3.67
2018-09-18T14:21:06.920Z,4.33
2018-09-18T14:23:36.036Z,4.40
2018-09-18T14:26:05.192Z,4.40
2018-09-18T14:28:34.218Z,4.20
2018-09-18T14:31:03.298Z,3.80
2018-09-18T14:33:32.404Z,4.33
2018-09-18T14:36:01.688Z,4.33
2018-09-18T14:38:31.037Z,4.00
2018-09-18T14:41:00.407Z,3.80
2018-09-18T14:43:29.461Z,3.97
2018-09-18T14:45:58.745Z,4.07
2018-09-18T14:48:27.636Z,4.10
2018-09-18T14:50:56.750Z,4.10
2018-09-18T14:53:25.674Z,4.63
2018-09-18T14:55:54.750Z,4.40
2018-09-18T14:58:23.873Z,4.80
2018-09-18T15:00:53.314Z,4.93
2018-09-18T15:03:22.279Z,4.50
2018-09-18T15:05:51.773Z,4.40
2018-09-18T15:08:20.970Z,4.20
2018-09-18T15:10:50.197Z,4.57
2018-09-18T15:13:20.296Z,3.73
2018-09-18T15:15:49.578Z,4.10
2018-09-18T15:18:18.611Z,3.43
2018-09-18T15:20:47.577Z,3.70
2018-09-18T15:23:30.951Z,3.73
2018-09-18T15:26:00.359Z,4.10
2018-09-18T15:28:29.752Z,3.80
2018-09-18T15:31:00.829Z,3.83
2018-09-18T15:33:30.491Z,3.60
2018-09-18T15:36:00.633Z,3.30
2018-09-18T15:38:30.087Z,2.93
2018-09-18T15:40:59.711Z,3.90
2018-09-18T15:43:29.733Z,3.63
2018-09-18T15:45:59.529Z,3.30
2018-09-18T15:48:29.435Z,4.00
2018-09-18T15:50:58.749Z,3.83
2018-09-18T15:53:28.337Z,3.83
2018-09-18T15:55:57.834Z,3.60
2018-09-18T15:58:27.229Z,3.53
2018-09-18T16:00:56.634Z,3.90
2018-09-18T16:03:25.709Z,3.37
2018-09-18T16:05:54.784Z,3.43
2018-09-18T16:08:23.913Z,3.77
2018-09-18T16:10:53.186Z,4.20
2018-09-18T16:13:23.025Z,3.97
2018-09-18T16:15:52.078Z,3.60
2018-09-18T16:18:21.230Z,3.50
2018-09-18T16:20:50.143Z,3.70
2018-09-18T16:23:19.634Z,3.83
2018-09-18T16:25:48.568Z,4.40
2018-09-18T16:28:17.581Z,4.10
2018-09-18T16:30:46.872Z,3.90
2018-09-18T16:33:16.172Z,3.60
2018-09-18T16:35:45.196Z,4.10
2018-09-18T16:38:14.265Z,3.80
2018-09-18T16:40:43.764Z,4.07
2018-09-18T16:43:13.297Z,3.97
2018-09-18T16:45:42.323Z,4.30
2018-09-18T16:48:11.421Z,3.47
2018-09-18T16:50:40.879Z,3.77
2018-09-18T16:53:10.050Z,3.90
2018-09-18T16:55:39.259Z,3.80
2018-09-18T16:58:08.765Z,3.63
2018-09-18T17:00:38.251Z,3.67
2018-09-18T17:03:07.748Z,3.63
2018-09-18T17:05:36.793Z,3.33
2018-09-18T17:08:06.662Z,3.77
2018-09-18T17:10:35.784Z,3.60
2018-09-18T17:13:05.244Z,3.97
2018-09-18T17:15:34.346Z,3.80
2018-09-18T17:18:03.592Z,3.53
2018-09-18T17:20:32.648Z,4.00
2018-09-18T17:23:01.952Z,4.17
2018-09-18T17:25:32.389Z,3.70
2018-09-18T17:28:01.459Z,4.53
2018-09-18T17:30:30.812Z,4.20
2018-09-18T17:33:00.201Z,4.10
2018-09-18T17:35:30.386Z,4.00
2018-09-18T17:37:59.474Z,4.90
2018-09-18T17:40:28.574Z,4.47
2018-09-18T17:42:57.721Z,4.33
2018-09-18T17:45:26.831Z,4.23
2018-09-18T17:47:55.769Z,4.93
2018-09-18T17:50:25.468Z,4.10
2018-09-18T17:52:54.990Z,4.63
2018-09-18T17:55:24.990Z,4.37
2018-09-18T17:57:54.243Z,4.20
2018-09-18T18:00:23.189Z,4.77
2018-09-18T18:02:52.227Z,4.53
2018-09-18T18:05:21.373Z,4.63
2018-09-18T18:07:51.408Z,4.40
2018-09-18T18:10:20.748Z,4.70
2018-09-18T18:12:50.660Z,4.77
2018-09-18T18:15:20.047Z,4.47
2018-09-18T18:17:50.080Z,4.97
2018-09-18T18:20:19.310Z,4.83
2018-09-18T18:22:48.599Z,4.80
2018-09-18T18:25:18.025Z,4.70
2018-09-18T18:27:47.181Z,4.70
2018-09-18T18:30:16.541Z,4.30
2018-09-18T18:32:45.588Z,4.57
2018-09-18T18:35:14.587Z,4.70
2018-09-18T18:37:43.719Z,4.40
2018-09-18T18:40:13.066Z,4.57
2018-09-18T18:42:42.785Z,5.33
2018-09-18T18:45:12.301Z,5.00
2018-09-18T18:47:43.439Z,20.30
2018-09-18T18:50:12.556Z,26.03
2018-09-18T18:52:41.595Z,24.13
2018-09-18T18:55:10.902Z,24.63
2018-09-18T18:57:39.947Z,19.60
2018-09-18T19:00:09.533Z,18.97
2018-09-18T19:02:38.732Z,17.00
2018-09-18T19:05:08.510Z,16.20
2018-09-18T19:07:38.086Z,16.00
2018-09-18T19:10:07.242Z,12.60
2018-09-18T19:12:36.956Z,12.20
2018-09-18T19:15:06.337Z,14.27
2018-09-18T19:17:35.761Z,12.73
2018-09-18T19:20:04.909Z,11.57
2018-09-18T19:22:34.479Z,11.53
2018-09-18T19:25:03.837Z,10.97
2018-09-18T19:27:33.177Z,9.83
2018-09-18T19:30:02.485Z,9.40
2018-09-18T19:32:32.416Z,7.87
2018-09-18T19:35:01.591Z,7.63
2018-09-18T19:37:30.952Z,9.90
2018-09-18T19:40:00.126Z,7.70
2018-09-18T19:42:29.294Z,7.87
2018-09-18T19:44:58.754Z,7.13
2018-09-18T19:47:27.813Z,7.47
2018-09-18T19:49:57.046Z,6.93
2018-09-18T19:52:26.284Z,6.70
2018-09-18T19:54:56.672Z,6.40
2018-09-18T19:57:25.688Z,5.40
2018-09-18T19:59:54.954Z,5.03
2018-09-18T20:02:24.287Z,4.77
2018-09-18T20:04:53.622Z,4.30
2018-09-18T20:07:23.684Z,4.10
2018-09-18T20:09:52.760Z,4.47
2018-09-18T20:12:22.333Z,4.17
2018-09-18T20:14:51.296Z,4.07
2018-09-18T20:17:20.664Z,4.10
2018-09-18T20:19:50.064Z,4.20
2018-09-18T20:22:19.276Z,4.17
2018-09-18T20:24:48.447Z,3.67
2018-09-18T20:27:17.555Z,3.97
2018-09-18T20:29:46.685Z,3.70
2018-09-18T20:32:15.717Z,4.33
2018-09-18T20:34:44.813Z,4.00
2018-09-18T20:37:13.964Z,4.50
2018-09-18T20:39:43.051Z,4.37
2018-09-18T20:42:12.720Z,4.63
2018-09-18T20:44:42.146Z,4.67
2018-09-18T20:47:11.648Z,4.40
2018-09-18T20:49:40.680Z,3.77
2018-09-18T20:52:10.527Z,4.30
2018-09-18T20:54:39.546Z,3.80
2018-09-18T20:57:08.598Z,4.17
2018-09-18T20:59:37.869Z,3.80
2018-09-18T21:02:07.237Z,3.93
2018-09-18T21:04:36.440Z,3.27
2018-09-18T21:07:05.562Z,3.53
2018-09-18T21:09:34.976Z,3.57
2018-09-18T21:12:04.158Z,3.90
2018-09-18T21:14:33.568Z,3.70
2018-09-18T21:17:02.889Z,3.67
2018-09-18T21:19:32.074Z,3.60
2018-09-18T21:22:01.382Z,3.53
2018-09-18T21:24:30.835Z,4.20
2018-09-18T21:27:00.040Z,3.60
2018-09-18T21:29:29.207Z,3.80
2018-09-18T21:31:58.416Z,3.70
2018-09-18T21:34:28.378Z,3.93
2018-09-18T21:36:57.645Z,3.87
2018-09-18T21:39:26.961Z,3.50
2018-09-18T21:41:55.988Z,3.90
2018-09-18T21:44:25.216Z,3.90
2018-09-18T21:46:54.153Z,3.70
2018-09-18T21:49:23.150Z,3.67
2018-09-18T21:51:52.268Z,4.20
2018-09-18T21:54:21.413Z,3.90
2018-09-18T21:56:50.478Z,4.00
2018-09-18T21:59:19.586Z,3.53
2018-09-18T22:01:48.829Z,4.00
2018-09-18T22:04:17.713Z,3.83
2018-09-18T22:06:47.291Z,3.83
2018-09-18T22:09:16.419Z,3.90
2018-09-18T22:11:45.717Z,3.87
2018-09-18T22:14:14.861Z,3.90
2018-09-18T22:16:44.033Z,3.93
2018-09-18T22:19:13.075Z,3.97
2018-09-18T22:21:42.393Z,3.77
2018-09-18T22:24:11.807Z,4.43
2018-09-18T22:26:41.213Z,3.70
2018-09-18T22:29:10.249Z,4.00
2018-09-18T22:31:39.111Z,4.20
2018-09-18T22:34:08.245Z,4.47
2018-09-18T22:36:37.485Z,3.80
2018-09-18T22:39:07.849Z,4.43
2018-09-18T22:41:37.028Z,4.53
2018-09-18T22:44:06.676Z,4.43
2018-09-18T22:46:35.872Z,4.30
2018-09-18T22:49:04.941Z,4.13
2018-09-18T22:51:33.841Z,4.00
2018-09-18T22:54:02.805Z,4.37
2018-09-18T22:56:31.794Z,4.07
2018-09-18T22:59:01.004Z,4.50
2018-09-18T23:01:30.151Z,4.17
2018-09-18T23:03:59.174Z,4.50
2018-09-18T23:06:28.303Z,4.63
2018-09-18T23:08:57.809Z,4.57
2018-09-18T23:11:26.848Z,4.67
2018-09-18T23:13:56.068Z,4.60
2018-09-18T23:16:25.513Z,4.23
2018-09-18T23:18:54.715Z,4.43
2018-09-18T23:21:23.959Z,4.63
2018-09-18T23:23:52.963Z,4.47
2018-09-18T23:26:22.181Z,4.40
2018-09-18T23:28:51.352Z,4.67
2018-09-18T23:31:20.495Z,4.50
2018-09-18T23:33:49.617Z,5.23
2018-09-18T23:36:18.676Z,5.07
2018-09-18T23:38:47.889Z,4.87
2018-09-18T23:41:17.561Z,4.60
2018-09-18T23:43:46.878Z,4.60
2018-09-18T23:46:16.036Z,4.20
2018-09-18T23:48:45.101Z,4.50
2018-09-18T23:51:14.007Z,4.77
2018-09-18T23:53:42.973Z,4.10
2018-09-18T23:56:12.372Z,4.30
2018-09-18T23:58:41.437Z,5.07
